sensor_id;sensor_type;location;lat;lon;timestamp;temperature;humidity
66710;DHT22;53624;0.000;0.000;2023-11-19T00:00:40;13.10;97.50
66710;DHT22;53624;0.000;0.000;2023-11-19T00:03:07;13.10;97.50
66710;DHT22;53624;0.000;0.000;2023-11-19T00:05:34;13.10;97.50
66710;DHT22;53624;0.000;0.000;2023-11-19T00:08:01;13.10;97.50
66710;DHT22;53624;0.000;0.000;2023-11-19T00:10:28;13.10;97.50
66710;DHT22;53624;0.000;0.000;2023-11-19T00:12:56;13.10;97.60
66710;DHT22;53624;0.000;0.000;2023-11-19T00:15:24;13.10;97.60
66710;DHT22;53624;0.000;0.000;2023-11-19T00:17:51;13.00;97.60
66710;DHT22;53624;0.000;0.000;2023-11-19T00:20:19;13.00;97.60
66710;DHT22;53624;0.000;0.000;2023-11-19T00:22:47;13.00;97.60
66710;DHT22;53624;0.000;0.000;2023-11-19T00:25:17;13.00;97.60
66710;DHT22;53624;0.000;0.000;2023-11-19T00:27:44;13.00;97.60
66710;DHT22;53624;0.000;0.000;2023-11-19T00:30:11;13.00;97.60
66710;DHT22;53624;0.000;0.000;2023-11-19T00:32:39;13.00;97.70
66710;DHT22;53624;0.000;0.000;2023-11-19T00:35:06;13.00;97.70
66710;DHT22;53624;0.000;0.000;2023-11-19T00:37:34;13.00;97.70
66710;DHT22;53624;0.000;0.000;2023-11-19T00:40:01;13.00;97.70
66710;DHT22;53624;0.000;0.000;2023-11-19T00:42:31;12.90;97.70
66710;DHT22;53624;0.000;0.000;2023-11-19T00:44:58;12.90;97.70
66710;DHT22;53624;0.000;0.000;2023-11-19T00:47:26;12.90;97.70
66710;DHT22;53624;0.000;0.000;2023-11-19T00:49:55;12.90;97.80
66710;DHT22;53624;0.000;0.000;2023-11-19T00:52:22;12.90;97.80
66710;DHT22;53624;0.000;0.000;2023-11-19T00:54:49;12.80;97.70
66710;DHT22;53624;0.000;0.000;2023-11-19T00:57:16;12.90;97.80
66710;DHT22;53624;0.000;0.000;2023-11-19T00:59:43;12.90;97.80
66710;DHT22;53624;0.000;0.000;2023-11-19T01:02:11;12.80;97.80
66710;DHT22;53624;0.000;0.000;2023-11-19T01:04:40;12.80;97.80
66710;DHT22;53624;0.000;0.000;2023-11-19T01:07:09;12.80;98.20
66710;DHT22;53624;0.000;0.000;2023-11-19T01:09:38;12.80;97.90
66710;DHT22;53624;0.000;0.000;2023-11-19T01:12:06;12.80;97.90
66710;DHT22;53624;0.000;0.000;2023-11-19T01:14:33;12.80;97.90
66710;DHT22;53624;0.000;0.000;2023-11-19T01:17:01;12.80;97.90
66710;DHT22;53624;0.000;0.000;2023-11-19T01:19:28;12.80;97.90
66710;DHT22;53624;0.000;0.000;2023-11-19T01:21:56;12.70;97.90
66710;DHT22;53624;0.000;0.000;2023-11-19T01:24:24;12.70;97.90
66710;DHT22;53624;0.000;0.000;2023-11-19T01:26:54;12.70;97.90
66710;DHT22;53624;0.000;0.000;2023-11-19T01:29:21;12.70;97.90
66710;DHT22;53624;0.000;0.000;2023-11-19T01:31:48;12.70;97.90
66710;DHT22;53624;0.000;0.000;2023-11-19T01:34:17;12.70;97.90
66710;DHT22;53624;0.000;0.000;2023-11-19T01:36:44;12.60;97.90
66710;DHT22;53624;0.000;0.000;2023-11-19T01:39:12;12.70;97.90
66710;DHT22;53624;0.000;0.000;2023-11-19T01:41:43;12.70;97.90
66710;DHT22;53624;0.000;0.000;2023-11-19T01:44:10;12.60;97.90
66710;DHT22;53624;0.000;0.000;2023-11-19T01:46:40;12.60;97.90
66710;DHT22;53624;0.000;0.000;2023-11-19T01:49:07;12.60;97.90
66710;DHT22;53624;0.000;0.000;2023-11-19T01:51:35;12.60;97.90
66710;DHT22;53624;0.000;0.000;2023-11-19T01:54:02;12.60;97.90
66710;DHT22;53624;0.000;0.000;2023-11-19T01:56:30;12.60;97.90
66710;DHT22;53624;0.000;0.000;2023-11-19T01:58:59;12.50;97.90
66710;DHT22;53624;0.000;0.000;2023-11-19T02:01:27;12.60;97.90
66710;DHT22;53624;0.000;0.000;2023-11-19T02:03:55;12.50;97.90
66710;DHT22;53624;0.000;0.000;2023-11-19T02:06:24;12.50;98.00
66710;DHT22;53624;0.000;0.000;2023-11-19T02:08:51;12.50;98.00
66710;DHT22;53624;0.000;0.000;2023-11-19T02:11:18;12.50;98.00
66710;DHT22;53624;0.000;0.000;2023-11-19T02:13:45;12.50;98.00
66710;DHT22;53624;0.000;0.000;2023-11-19T02:16:14;12.50;98.00
66710;DHT22;53624;0.000;0.000;2023-11-19T02:18:42;12.50;98.00
66710;DHT22;53624;0.000;0.000;2023-11-19T02:21:09;12.40;98.00
66710;DHT22;53624;0.000;0.000;2023-11-19T02:23:36;12.40;98.00
66710;DHT22;53624;0.000;0.000;2023-11-19T02:26:05;12.40;98.00
66710;DHT22;53624;0.000;0.000;2023-11-19T02:28:37;12.40;98.10
66710;DHT22;53624;0.000;0.000;2023-11-19T02:31:05;12.40;98.10
66710;DHT22;53624;0.000;0.000;2023-11-19T02:33:35;12.40;98.10
66710;DHT22;53624;0.000;0.000;2023-11-19T02:36:02;12.40;98.10
66710;DHT22;53624;0.000;0.000;2023-11-19T02:38:30;12.40;98.10
66710;DHT22;53624;0.000;0.000;2023-11-19T02:40:57;12.40;98.10
66710;DHT22;53624;0.000;0.000;2023-11-19T02:43:25;12.40;98.10
66710;DHT22;53624;0.000;0.000;2023-11-19T02:45:53;12.30;98.10
66710;DHT22;53624;0.000;0.000;2023-11-19T02:48:21;12.40;98.10
66710;DHT22;53624;0.000;0.000;2023-11-19T02:50:48;12.40;98.10
66710;DHT22;53624;0.000;0.000;2023-11-19T02:53:15;12.30;98.10
66710;DHT22;53624;0.000;0.000;2023-11-19T02:55:44;12.30;98.10
66710;DHT22;53624;0.000;0.000;2023-11-19T02:58:15;12.30;98.20
66710;DHT22;53624;0.000;0.000;2023-11-19T03:00:49;12.30;98.20
66710;DHT22;53624;0.000;0.000;2023-11-19T03:03:24;12.30;98.20
66710;DHT22;53624;0.000;0.000;2023-11-19T03:05:56;12.30;98.20
66710;DHT22;53624;0.000;0.000;2023-11-19T03:08:23;12.30;98.20
66710;DHT22;53624;0.000;0.000;2023-11-19T03:10:50;12.30;98.20
66710;DHT22;53624;0.000;0.000;2023-11-19T03:13:18;12.30;98.20
66710;DHT22;53624;0.000;0.000;2023-11-19T03:15:45;12.30;98.30
66710;DHT22;53624;0.000;0.000;2023-11-19T03:18:12;12.30;98.30
66710;DHT22;53624;0.000;0.000;2023-11-19T03:20:41;12.30;98.30
66710;DHT22;53624;0.000;0.000;2023-11-19T03:23:08;12.30;98.30
66710;DHT22;53624;0.000;0.000;2023-11-19T03:25:35;12.20;98.30
66710;DHT22;53624;0.000;0.000;2023-11-19T03:28:03;12.20;98.30
66710;DHT22;53624;0.000;0.000;2023-11-19T03:30:30;12.20;98.40
66710;DHT22;53624;0.000;0.000;2023-11-19T03:32:58;12.20;98.40
66710;DHT22;53624;0.000;0.000;2023-11-19T03:35:26;12.20;98.40
66710;DHT22;53624;0.000;0.000;2023-11-19T03:37:56;12.20;98.40
66710;DHT22;53624;0.000;0.000;2023-11-19T03:40:22;12.20;98.40
66710;DHT22;53624;0.000;0.000;2023-11-19T03:42:50;12.20;98.50
66710;DHT22;53624;0.000;0.000;2023-11-19T03:45:18;12.20;98.50
66710;DHT22;53624;0.000;0.000;2023-11-19T03:47:45;12.20;98.50
66710;DHT22;53624;0.000;0.000;2023-11-19T03:50:12;12.20;98.50
66710;DHT22;53624;0.000;0.000;2023-11-19T03:52:41;12.20;98.60
66710;DHT22;53624;0.000;0.000;2023-11-19T03:55:10;12.10;98.60
66710;DHT22;53624;0.000;0.000;2023-11-19T03:57:38;12.20;98.60
66710;DHT22;53624;0.000;0.000;2023-11-19T04:00:06;12.10;98.60
66710;DHT22;53624;0.000;0.000;2023-11-19T04:02:39;12.10;98.60
66710;DHT22;53624;0.000;0.000;2023-11-19T04:05:06;12.10;98.60
66710;DHT22;53624;0.000;0.000;2023-11-19T04:07:33;12.10;98.60
66710;DHT22;53624;0.000;0.000;2023-11-19T04:10:01;12.10;98.60
66710;DHT22;53624;0.000;0.000;2023-11-19T04:12:30;12.10;98.60
66710;DHT22;53624;0.000;0.000;2023-11-19T04:14:57;12.10;98.60
66710;DHT22;53624;0.000;0.000;2023-11-19T04:17:24;12.10;98.60
66710;DHT22;53624;0.000;0.000;2023-11-19T04:19:51;12.10;98.60
66710;DHT22;53624;0.000;0.000;2023-11-19T04:22:18;12.10;98.60
66710;DHT22;53624;0.000;0.000;2023-11-19T04:24:45;12.10;98.60
66710;DHT22;53624;0.000;0.000;2023-11-19T04:27:13;12.10;98.60
66710;DHT22;53624;0.000;0.000;2023-11-19T04:29:42;12.10;98.60
66710;DHT22;53624;0.000;0.000;2023-11-19T04:32:09;12.00;98.60
66710;DHT22;53624;0.000;0.000;2023-11-19T04:34:36;12.00;98.60
66710;DHT22;53624;0.000;0.000;2023-11-19T04:37:03;12.00;98.60
66710;DHT22;53624;0.000;0.000;2023-11-19T04:39:31;12.00;98.70
66710;DHT22;53624;0.000;0.000;2023-11-19T04:41:58;12.00;98.70
66710;DHT22;53624;0.000;0.000;2023-11-19T04:44:25;12.00;98.60
66710;DHT22;53624;0.000;0.000;2023-11-19T04:46:53;12.00;98.70
66710;DHT22;53624;0.000;0.000;2023-11-19T04:49:20;12.00;98.60
66710;DHT22;53624;0.000;0.000;2023-11-19T04:51:48;12.00;98.70
66710;DHT22;53624;0.000;0.000;2023-11-19T04:54:16;12.00;98.70
66710;DHT22;53624;0.000;0.000;2023-11-19T04:56:45;12.00;98.70
66710;DHT22;53624;0.000;0.000;2023-11-19T04:59:12;12.00;98.70
66710;DHT22;53624;0.000;0.000;2023-11-19T05:01:39;12.00;98.70
66710;DHT22;53624;0.000;0.000;2023-11-19T05:04:08;12.00;98.70
66710;DHT22;53624;0.000;0.000;2023-11-19T05:06:35;11.90;98.70
66710;DHT22;53624;0.000;0.000;2023-11-19T05:09:03;11.90;98.70
66710;DHT22;53624;0.000;0.000;2023-11-19T05:11:33;11.90;98.70
66710;DHT22;53624;0.000;0.000;2023-11-19T05:14:02;11.90;98.70
66710;DHT22;53624;0.000;0.000;2023-11-19T05:16:29;11.90;98.70
66710;DHT22;53624;0.000;0.000;2023-11-19T05:18:56;11.90;98.70
66710;DHT22;53624;0.000;0.000;2023-11-19T05:21:25;11.90;98.70
66710;DHT22;53624;0.000;0.000;2023-11-19T05:23:52;11.90;98.70
66710;DHT22;53624;0.000;0.000;2023-11-19T05:26:20;11.90;98.70
66710;DHT22;53624;0.000;0.000;2023-11-19T05:28:48;11.90;98.70
66710;DHT22;53624;0.000;0.000;2023-11-19T05:31:15;11.90;98.70
66710;DHT22;53624;0.000;0.000;2023-11-19T05:33:42;11.80;98.70
66710;DHT22;53624;0.000;0.000;2023-11-19T05:36:12;11.80;98.70
66710;DHT22;53624;0.000;0.000;2023-11-19T05:38:40;11.80;98.70
66710;DHT22;53624;0.000;0.000;2023-11-19T05:41:08;11.80;98.70
66710;DHT22;53624;0.000;0.000;2023-11-19T05:43:35;11.80;98.80
66710;DHT22;53624;0.000;0.000;2023-11-19T05:46:03;11.80;98.80
66710;DHT22;53624;0.000;0.000;2023-11-19T05:48:30;11.80;98.80
66710;DHT22;53624;0.000;0.000;2023-11-19T05:50:58;11.80;98.80
66710;DHT22;53624;0.000;0.000;2023-11-19T05:53:25;11.80;98.80
66710;DHT22;53624;0.000;0.000;2023-11-19T05:55:54;11.70;98.80
66710;DHT22;53624;0.000;0.000;2023-11-19T05:58:23;11.80;98.80
66710;DHT22;53624;0.000;0.000;2023-11-19T06:00:51;11.70;98.80
66710;DHT22;53624;0.000;0.000;2023-11-19T06:03:18;11.70;98.80
66710;DHT22;53624;0.000;0.000;2023-11-19T06:05:47;11.70;98.80
66710;DHT22;53624;0.000;0.000;2023-11-19T06:08:14;11.70;98.80
66710;DHT22;53624;0.000;0.000;2023-11-19T06:10:42;11.70;98.80
66710;DHT22;53624;0.000;0.000;2023-11-19T06:13:13;11.70;98.80
66710;DHT22;53624;0.000;0.000;2023-11-19T06:15:41;11.70;98.90
66710;DHT22;53624;0.000;0.000;2023-11-19T06:18:08;11.70;98.90
66710;DHT22;53624;0.000;0.000;2023-11-19T06:20:37;11.70;98.90
66710;DHT22;53624;0.000;0.000;2023-11-19T06:23:04;11.70;98.90
66710;DHT22;53624;0.000;0.000;2023-11-19T06:25:32;11.70;98.90
66710;DHT22;53624;0.000;0.000;2023-11-19T06:28:01;11.70;98.90
66710;DHT22;53624;0.000;0.000;2023-11-19T06:30:29;11.70;98.90
66710;DHT22;53624;0.000;0.000;2023-11-19T06:32:58;11.70;98.90
66710;DHT22;53624;0.000;0.000;2023-11-19T06:35:25;11.70;98.90
66710;DHT22;53624;0.000;0.000;2023-11-19T06:37:52;11.70;98.90
66710;DHT22;53624;0.000;0.000;2023-11-19T06:40:20;11.60;98.90
66710;DHT22;53624;0.000;0.000;2023-11-19T06:42:47;11.60;98.90
66710;DHT22;53624;0.000;0.000;2023-11-19T06:45:15;11.60;98.90
66710;DHT22;53624;0.000;0.000;2023-11-19T06:47:43;11.60;98.90
66710;DHT22;53624;0.000;0.000;2023-11-19T06:50:10;11.60;98.90
66710;DHT22;53624;0.000;0.000;2023-11-19T06:52:38;11.60;99.00
66710;DHT22;53624;0.000;0.000;2023-11-19T06:55:06;11.60;98.90
66710;DHT22;53624;0.000;0.000;2023-11-19T06:57:33;11.60;98.90
66710;DHT22;53624;0.000;0.000;2023-11-19T07:00:00;11.60;98.90
66710;DHT22;53624;0.000;0.000;2023-11-19T07:02:28;11.60;98.90
66710;DHT22;53624;0.000;0.000;2023-11-19T07:04:56;11.60;98.90
66710;DHT22;53624;0.000;0.000;2023-11-19T07:07:24;11.60;99.00
66710;DHT22;53624;0.000;0.000;2023-11-19T07:09:51;11.60;99.00
66710;DHT22;53624;0.000;0.000;2023-11-19T07:12:18;11.60;98.90
66710;DHT22;53624;0.000;0.000;2023-11-19T07:14:45;11.60;98.90
66710;DHT22;53624;0.000;0.000;2023-11-19T07:17:12;11.60;99.00
66710;DHT22;53624;0.000;0.000;2023-11-19T07:19:41;11.60;99.00
66710;DHT22;53624;0.000;0.000;2023-11-19T07:22:09;11.60;99.00
66710;DHT22;53624;0.000;0.000;2023-11-19T07:24:38;11.60;99.00
66710;DHT22;53624;0.000;0.000;2023-11-19T07:27:05;11.60;99.00
66710;DHT22;53624;0.000;0.000;2023-11-19T07:29:34;11.60;98.90
66710;DHT22;53624;0.000;0.000;2023-11-19T07:32:01;11.60;99.00
66710;DHT22;53624;0.000;0.000;2023-11-19T07:34:29;11.60;99.00
66710;DHT22;53624;0.000;0.000;2023-11-19T07:36:56;11.60;99.00
66710;DHT22;53624;0.000;0.000;2023-11-19T07:39:26;11.60;99.00
66710;DHT22;53624;0.000;0.000;2023-11-19T07:41:53;11.60;99.00
66710;DHT22;53624;0.000;0.000;2023-11-19T07:44:21;11.60;99.00
66710;DHT22;53624;0.000;0.000;2023-11-19T07:46:48;11.60;99.00
66710;DHT22;53624;0.000;0.000;2023-11-19T07:49:15;11.60;99.00
66710;DHT22;53624;0.000;0.000;2023-11-19T07:51:42;11.60;99.10
66710;DHT22;53624;0.000;0.000;2023-11-19T07:54:09;11.60;99.10
66710;DHT22;53624;0.000;0.000;2023-11-19T07:56:38;11.60;99.10
66710;DHT22;53624;0.000;0.000;2023-11-19T07:59:05;11.60;99.10
66710;DHT22;53624;0.000;0.000;2023-11-19T08:01:32;11.60;99.10
66710;DHT22;53624;0.000;0.000;2023-11-19T08:03:59;11.60;99.10
66710;DHT22;53624;0.000;0.000;2023-11-19T08:06:27;11.60;99.10
66710;DHT22;53624;0.000;0.000;2023-11-19T08:08:54;11.70;99.30
66710;DHT22;53624;0.000;0.000;2023-11-19T08:11:21;11.70;99.10
66710;DHT22;53624;0.000;0.000;2023-11-19T08:13:50;11.80;99.10
66710;DHT22;53624;0.000;0.000;2023-11-19T08:16:17;11.80;99.10
66710;DHT22;53624;0.000;0.000;2023-11-19T08:18:44;11.80;99.00
66710;DHT22;53624;0.000;0.000;2023-11-19T08:21:12;11.90;99.00
66710;DHT22;53624;0.000;0.000;2023-11-19T08:23:39;11.90;99.00
66710;DHT22;53624;0.000;0.000;2023-11-19T08:26:06;11.90;99.00
66710;DHT22;53624;0.000;0.000;2023-11-19T08:28:34;11.90;99.00
66710;DHT22;53624;0.000;0.000;2023-11-19T08:31:02;12.00;99.00
66710;DHT22;53624;0.000;0.000;2023-11-19T08:33:30;12.00;99.10
66710;DHT22;53624;0.000;0.000;2023-11-19T08:35:57;12.00;99.10
66710;DHT22;53624;0.000;0.000;2023-11-19T08:38:25;12.10;99.10
66710;DHT22;53624;0.000;0.000;2023-11-19T08:40:53;12.10;99.00
66710;DHT22;53624;0.000;0.000;2023-11-19T08:43:25;12.20;99.00
66710;DHT22;53624;0.000;0.000;2023-11-19T08:45:52;12.30;99.00
66710;DHT22;53624;0.000;0.000;2023-11-19T08:48:20;12.30;99.00
66710;DHT22;53624;0.000;0.000;2023-11-19T08:50:48;12.50;98.80
66710;DHT22;53624;0.000;0.000;2023-11-19T08:53:15;12.60;98.70
66710;DHT22;53624;0.000;0.000;2023-11-19T08:55:42;12.70;98.70
66710;DHT22;53624;0.000;0.000;2023-11-19T08:58:09;12.90;98.50
66710;DHT22;53624;0.000;0.000;2023-11-19T09:00:36;13.10;98.30
66710;DHT22;53624;0.000;0.000;2023-11-19T09:03:04;13.40;97.90
66710;DHT22;53624;0.000;0.000;2023-11-19T09:05:32;13.70;97.80
66710;DHT22;53624;0.000;0.000;2023-11-19T09:07:59;13.90;97.10
66710;DHT22;53624;0.000;0.000;2023-11-19T09:10:26;14.00;97.00
66710;DHT22;53624;0.000;0.000;2023-11-19T09:12:55;14.00;97.10
66710;DHT22;53624;0.000;0.000;2023-11-19T09:15:22;14.00;97.20
66710;DHT22;53624;0.000;0.000;2023-11-19T09:17:49;13.90;97.40
66710;DHT22;53624;0.000;0.000;2023-11-19T09:20:17;14.00;97.40
66710;DHT22;53624;0.000;0.000;2023-11-19T09:22:45;14.00;97.60
66710;DHT22;53624;0.000;0.000;2023-11-19T09:25:13;14.00;97.70
66710;DHT22;53624;0.000;0.000;2023-11-19T09:27:42;14.00;97.70
66710;DHT22;53624;0.000;0.000;2023-11-19T09:30:10;14.00;97.90
66710;DHT22;53624;0.000;0.000;2023-11-19T09:32:37;14.00;98.10
66710;DHT22;53624;0.000;0.000;2023-11-19T09:35:04;14.10;98.10
66710;DHT22;53624;0.000;0.000;2023-11-19T09:37:32;14.10;98.10
66710;DHT22;53624;0.000;0.000;2023-11-19T09:40:01;14.10;98.10
66710;DHT22;53624;0.000;0.000;2023-11-19T09:42:28;14.20;98.20
66710;DHT22;53624;0.000;0.000;2023-11-19T09:44:55;14.20;98.20
66710;DHT22;53624;0.000;0.000;2023-11-19T09:47:23;14.30;98.20
66710;DHT22;53624;0.000;0.000;2023-11-19T09:49:53;14.40;98.20
66710;DHT22;53624;0.000;0.000;2023-11-19T09:52:21;14.50;98.50
66710;DHT22;53624;0.000;0.000;2023-11-19T09:54:48;14.60;98.10
66710;DHT22;53624;0.000;0.000;2023-11-19T09:57:16;14.60;98.10
66710;DHT22;53624;0.000;0.000;2023-11-19T09:59:43;14.70;98.10
66710;DHT22;53624;0.000;0.000;2023-11-19T10:02:12;14.80;98.10
66710;DHT22;53624;0.000;0.000;2023-11-19T10:04:39;14.90;98.10
66710;DHT22;53624;0.000;0.000;2023-11-19T10:07:06;15.00;98.10
66710;DHT22;53624;0.000;0.000;2023-11-19T10:09:34;15.00;98.20
66710;DHT22;53624;0.000;0.000;2023-11-19T10:12:01;15.00;98.20
66710;DHT22;53624;0.000;0.000;2023-11-19T10:14:29;15.10;98.40
66710;DHT22;53624;0.000;0.000;2023-11-19T10:16:57;15.10;98.40
66710;DHT22;53624;0.000;0.000;2023-11-19T10:19:25;15.20;98.60
66710;DHT22;53624;0.000;0.000;2023-11-19T10:21:52;15.20;98.70
66710;DHT22;53624;0.000;0.000;2023-11-19T10:24:25;15.30;98.70
66710;DHT22;53624;0.000;0.000;2023-11-19T10:26:59;15.40;98.90
66710;DHT22;53624;0.000;0.000;2023-11-19T10:29:26;15.40;99.00
66710;DHT22;53624;0.000;0.000;2023-11-19T10:31:59;15.50;99.10
66710;DHT22;53624;0.000;0.000;2023-11-19T10:34:26;15.60;99.10
66710;DHT22;53624;0.000;0.000;2023-11-19T10:36:53;15.70;99.20
66710;DHT22;53624;0.000;0.000;2023-11-19T10:39:20;15.80;99.20
66710;DHT22;53624;0.000;0.000;2023-11-19T10:41:49;15.80;99.20
66710;DHT22;53624;0.000;0.000;2023-11-19T10:44:32;15.90;99.30
66710;DHT22;53624;0.000;0.000;2023-11-19T10:47:03;16.00;99.30
66710;DHT22;53624;0.000;0.000;2023-11-19T10:49:32;16.10;99.40
66710;DHT22;53624;0.000;0.000;2023-11-19T10:52:01;16.20;99.40
66710;DHT22;53624;0.000;0.000;2023-11-19T10:54:28;16.30;99.40
66710;DHT22;53624;0.000;0.000;2023-11-19T10:56:58;16.40;99.50
66710;DHT22;53624;0.000;0.000;2023-11-19T10:59:26;16.50;99.50
66710;DHT22;53624;0.000;0.000;2023-11-19T11:01:55;16.60;99.50
66710;DHT22;53624;0.000;0.000;2023-11-19T11:04:24;16.70;99.50
66710;DHT22;53624;0.000;0.000;2023-11-19T11:06:53;16.80;99.50
66710;DHT22;53624;0.000;0.000;2023-11-19T11:09:21;16.90;99.40
66710;DHT22;53624;0.000;0.000;2023-11-19T11:11:49;17.00;99.30
66710;DHT22;53624;0.000;0.000;2023-11-19T11:14:16;17.10;99.10
66710;DHT22;53624;0.000;0.000;2023-11-19T11:16:46;17.20;99.10
66710;DHT22;53624;0.000;0.000;2023-11-19T11:19:13;17.30;99.00
66710;DHT22;53624;0.000;0.000;2023-11-19T11:21:43;17.50;99.30
66710;DHT22;53624;0.000;0.000;2023-11-19T11:24:21;17.70;99.30
66710;DHT22;53624;0.000;0.000;2023-11-19T11:26:57;17.90;99.20
66710;DHT22;53624;0.000;0.000;2023-11-19T11:29:29;18.10;99.60
66710;DHT22;53624;0.000;0.000;2023-11-19T11:32:00;18.20;99.30
66710;DHT22;53624;0.000;0.000;2023-11-19T11:34:36;18.30;99.50
66710;DHT22;53624;0.000;0.000;2023-11-19T11:37:10;18.40;99.40
66710;DHT22;53624;0.000;0.000;2023-11-19T11:39:39;18.60;99.50
66710;DHT22;53624;0.000;0.000;2023-11-19T11:44:58;18.90;99.10
66710;DHT22;53624;0.000;0.000;2023-11-19T11:47:33;19.10;98.70
66710;DHT22;53624;0.000;0.000;2023-11-19T11:50:22;19.00;98.40
66710;DHT22;53624;0.000;0.000;2023-11-19T11:53:14;19.00;98.70
66710;DHT22;53624;0.000;0.000;2023-11-19T11:55:52;18.90;99.90
66710;DHT22;53624;0.000;0.000;2023-11-19T11:58:20;19.00;99.90
66710;DHT22;53624;0.000;0.000;2023-11-19T12:00:48;19.10;99.90
66710;DHT22;53624;0.000;0.000;2023-11-19T12:03:18;19.10;99.90
66710;DHT22;53624;0.000;0.000;2023-11-19T12:05:46;19.30;99.90
66710;DHT22;53624;0.000;0.000;2023-11-19T12:08:16;19.40;99.90
66710;DHT22;53624;0.000;0.000;2023-11-19T12:10:46;19.40;99.90
66710;DHT22;53624;0.000;0.000;2023-11-19T12:13:14;19.40;99.90
66710;DHT22;53624;0.000;0.000;2023-11-19T12:18:30;19.40;99.90
66710;DHT22;53624;0.000;0.000;2023-11-19T12:20:58;19.60;99.90
66710;DHT22;53624;0.000;0.000;2023-11-19T12:23:27;19.80;99.60
66710;DHT22;53624;0.000;0.000;2023-11-19T12:25:55;19.80;99.30
66710;DHT22;53624;0.000;0.000;2023-11-19T12:28:23;19.80;99.20
66710;DHT22;53624;0.000;0.000;2023-11-19T12:30:52;19.80;99.10
66710;DHT22;53624;0.000;0.000;2023-11-19T12:33:20;19.70;99.00
66710;DHT22;53624;0.000;0.000;2023-11-19T12:35:47;19.70;98.80
66710;DHT22;53624;0.000;0.000;2023-11-19T12:38:18;19.60;98.90
66710;DHT22;53624;0.000;0.000;2023-11-19T12:40:47;19.50;98.80
66710;DHT22;53624;0.000;0.000;2023-11-19T12:43:20;19.50;98.80
66710;DHT22;53624;0.000;0.000;2023-11-19T12:45:48;19.40;98.80
66710;DHT22;53624;0.000;0.000;2023-11-19T12:48:15;19.40;98.90
66710;DHT22;53624;0.000;0.000;2023-11-19T12:50:52;19.30;99.00
66710;DHT22;53624;0.000;0.000;2023-11-19T12:53:19;19.20;99.20
66710;DHT22;53624;0.000;0.000;2023-11-19T12:55:48;19.10;99.30
66710;DHT22;53624;0.000;0.000;2023-11-19T12:58:28;19.00;99.50
66710;DHT22;53624;0.000;0.000;2023-11-19T13:00:59;19.00;99.60
66710;DHT22;53624;0.000;0.000;2023-11-19T13:03:29;18.90;99.80
66710;DHT22;53624;0.000;0.000;2023-11-19T13:06:01;18.80;99.80
66710;DHT22;53624;0.000;0.000;2023-11-19T13:08:28;18.80;99.90
66710;DHT22;53624;0.000;0.000;2023-11-19T13:10:56;18.80;99.90
66710;DHT22;53624;0.000;0.000;2023-11-19T13:13:23;18.70;99.90
66710;DHT22;53624;0.000;0.000;2023-11-19T13:15:51;18.70;99.90
66710;DHT22;53624;0.000;0.000;2023-11-19T13:18:18;18.60;99.90
66710;DHT22;53624;0.000;0.000;2023-11-19T13:20:45;18.50;99.90
66710;DHT22;53624;0.000;0.000;2023-11-19T13:23:12;18.50;99.90
66710;DHT22;53624;0.000;0.000;2023-11-19T13:25:40;18.50;99.90
66710;DHT22;53624;0.000;0.000;2023-11-19T13:28:10;18.40;99.90
66710;DHT22;53624;0.000;0.000;2023-11-19T13:30:37;18.30;99.90
66710;DHT22;53624;0.000;0.000;2023-11-19T13:33:05;18.30;99.90
66710;DHT22;53624;0.000;0.000;2023-11-19T13:35:32;18.20;99.90
66710;DHT22;53624;0.000;0.000;2023-11-19T13:37:59;18.20;99.90
66710;DHT22;53624;0.000;0.000;2023-11-19T13:40:27;18.10;99.90
66710;DHT22;53624;0.000;0.000;2023-11-19T13:42:54;18.10;99.90
66710;DHT22;53624;0.000;0.000;2023-11-19T13:45:22;18.00;99.90
66710;DHT22;53624;0.000;0.000;2023-11-19T13:47:49;18.00;99.90
66710;DHT22;53624;0.000;0.000;2023-11-19T13:50:16;17.90;99.90
66710;DHT22;53624;0.000;0.000;2023-11-19T13:52:43;17.90;99.90
66710;DHT22;53624;0.000;0.000;2023-11-19T13:55:12;17.80;99.90
66710;DHT22;53624;0.000;0.000;2023-11-19T13:57:40;17.80;99.90
66710;DHT22;53624;0.000;0.000;2023-11-19T14:00:07;17.70;99.90
66710;DHT22;53624;0.000;0.000;2023-11-19T14:02:39;17.60;99.90
66710;DHT22;53624;0.000;0.000;2023-11-19T14:05:07;17.60;99.90
66710;DHT22;53624;0.000;0.000;2023-11-19T14:07:34;17.60;99.90
66710;DHT22;53624;0.000;0.000;2023-11-19T14:10:02;17.50;99.90
66710;DHT22;53624;0.000;0.000;2023-11-19T14:12:31;17.50;99.90
66710;DHT22;53624;0.000;0.000;2023-11-19T14:14:58;17.40;99.90
66710;DHT22;53624;0.000;0.000;2023-11-19T14:17:25;17.40;99.90
66710;DHT22;53624;0.000;0.000;2023-11-19T14:19:54;17.30;99.90
66710;DHT22;53624;0.000;0.000;2023-11-19T14:22:21;17.30;99.90
66710;DHT22;53624;0.000;0.000;2023-11-19T14:24:48;17.30;99.90
66710;DHT22;53624;0.000;0.000;2023-11-19T14:27:15;17.20;99.90
66710;DHT22;53624;0.000;0.000;2023-11-19T14:29:43;17.20;99.90
66710;DHT22;53624;0.000;0.000;2023-11-19T14:32:11;17.20;99.90
66710;DHT22;53624;0.000;0.000;2023-11-19T14:34:38;17.20;99.90
66710;DHT22;53624;0.000;0.000;2023-11-19T14:37:07;17.10;99.90
66710;DHT22;53624;0.000;0.000;2023-11-19T14:39:34;17.10;99.90
66710;DHT22;53624;0.000;0.000;2023-11-19T14:42:01;17.10;99.90
66710;DHT22;53624;0.000;0.000;2023-11-19T14:44:31;17.10;99.90
66710;DHT22;53624;0.000;0.000;2023-11-19T14:46:58;17.00;99.90
66710;DHT22;53624;0.000;0.000;2023-11-19T14:49:25;17.00;99.90
66710;DHT22;53624;0.000;0.000;2023-11-19T14:51:53;17.00;99.90
66710;DHT22;53624;0.000;0.000;2023-11-19T14:54:21;17.00;99.90
66710;DHT22;53624;0.000;0.000;2023-11-19T14:56:50;16.90;99.90
66710;DHT22;53624;0.000;0.000;2023-11-19T14:59:17;17.00;99.90
66710;DHT22;53624;0.000;0.000;2023-11-19T15:01:45;16.90;99.90
66710;DHT22;53624;0.000;0.000;2023-11-19T15:04:12;16.90;99.90
66710;DHT22;53624;0.000;0.000;2023-11-19T15:06:39;16.90;99.90
66710;DHT22;53624;0.000;0.000;2023-11-19T15:09:06;16.80;99.90
66710;DHT22;53624;0.000;0.000;2023-11-19T15:11:37;16.80;99.90
66710;DHT22;53624;0.000;0.000;2023-11-19T15:14:04;16.80;99.90
66710;DHT22;53624;0.000;0.000;2023-11-19T15:16:32;16.70;99.90
66710;DHT22;53624;0.000;0.000;2023-11-19T15:19:00;16.70;99.90
66710;DHT22;53624;0.000;0.000;2023-11-19T15:21:29;16.70;99.90
66710;DHT22;53624;0.000;0.000;2023-11-19T15:23:56;16.70;99.90
66710;DHT22;53624;0.000;0.000;2023-11-19T15:26:23;16.70;99.90
66710;DHT22;53624;0.000;0.000;2023-11-19T15:28:52;16.70;99.90
66710;DHT22;53624;0.000;0.000;2023-11-19T15:31:22;16.60;99.90
66710;DHT22;53624;0.000;0.000;2023-11-19T15:33:49;16.60;99.90
66710;DHT22;53624;0.000;0.000;2023-11-19T15:36:16;16.60;99.90
66710;DHT22;53624;0.000;0.000;2023-11-19T15:38:44;16.50;99.90
66710;DHT22;53624;0.000;0.000;2023-11-19T15:41:11;16.50;99.90
66710;DHT22;53624;0.000;0.000;2023-11-19T15:43:38;16.50;99.90
66710;DHT22;53624;0.000;0.000;2023-11-19T15:46:07;16.40;99.90
66710;DHT22;53624;0.000;0.000;2023-11-19T15:48:34;16.40;99.90
66710;DHT22;53624;0.000;0.000;2023-11-19T15:51:02;16.40;99.90
66710;DHT22;53624;0.000;0.000;2023-11-19T15:53:29;16.40;99.90
66710;DHT22;53624;0.000;0.000;2023-11-19T15:55:56;16.30;99.90